Aérodrome :
LOGIN :

S'inscrire | Disclaimer

   EN    FR    IT 

 










Légende :    VFR   VFR Marginal   IFR   IFR Intensif   IFR Très Intensif
Visi : 
Plafond : 
>= 8 km
>= 3000ft
5 à 8 km
1000 à 3000 ft
1500m à 5 km
500 à 1000 ft
800 à 1500m
200 à 500 ft
< 800m
< 200 ft
Symboles :   Orages  Brouillard  Fortes neiges  Fortes précipitations  Vent > 20 kt
SIGMETs :   Divers  Orages  Givrage  Turbulence  Onde Orograph.  Cendres Volcan.







- Altitude de l'aérodrome : 1079 ft


ETIK - Illesheim Air Base

DERNIER METAR :
  • 240756Z AUTO 24003KT 9999 SCT050 OVC075 15/09 A3019 RMK AO2 SLP223 T01510094 $

METARs EXPIRÉS :
  • 240656Z AUTO 00000KT 9999 OVC070 13/10 A3020 RMK AO2 SLP228 T01310103 $
  • 240556Z AUTO 27003KT 9999 OVC070 12/11 A3020 RMK AO2 SLP228 T01170111 10117 20062 50000 $

TAF TAF ETIK
Valide du 24 à 05h jusqu'au 25 à 11h UTC


240504Z 2405/2511 27009KT 9999 SCT025 BKN060 610609 QNH3015INS
BECMG 2411/2412 33009KT 9999 BKN050 OVC060 610609 QNH3013INS
BECMG 2502/2503 30009KT 9999 BKN020 QNH3013INS
BECMG 2508/2509 32009KT 9999 SCT020 QNH3017INS TX17/2415Z TN05/2503Z
Pas de NOTAMs connus pour ce terrain.



MET'MAP, la Météo Aéronautique d'un coup d'oeil ! - Copyright ORBIFLY Décembre 2007 - Disclaimer

ORBIFLY MET'MAP TEAM :

Programmation & Développement : Alexandra Zaïnal
Conception & Développement : Baudouin d'Aumeries
Co-Programmation & Développement : Marc-Olivier Méhu
Soutien technique & logistique : Manuel Goepfert

Contact : metmap@orbifly.com




SOURCES & CREDITS :

   NOAA